createdAt,value
2023-09-08T04:13:25.344Z,24.90
2023-09-08T04:15:53.002Z,25.20
2023-09-08T04:18:20.640Z,25.48
2023-09-08T04:20:49.379Z,25.63
2023-09-08T04:23:17.326Z,26.17
2023-09-08T04:25:44.816Z,25.85
2023-09-08T04:28:12.266Z,25.40
2023-09-08T04:30:40.332Z,26.45
2023-09-08T04:33:08.284Z,27.95
2023-09-08T04:35:35.901Z,27.90
2023-09-08T04:38:04.769Z,29.23
2023-09-08T04:40:32.620Z,28.55
2023-09-08T04:43:00.796Z,29.73
2023-09-08T04:45:28.777Z,28.52
2023-09-08T04:47:56.297Z,29.17
2023-09-08T04:50:23.816Z,29.23
2023-09-08T04:52:51.830Z,28.60
2023-09-08T04:55:20.692Z,27.88
2023-09-08T04:57:48.635Z,28.33
2023-09-08T05:00:17.091Z,26.20
2023-09-08T05:02:44.744Z,25.13
2023-09-08T05:05:13.002Z,27.17
2023-09-08T05:07:40.595Z,26.38
2023-09-08T05:10:08.466Z,27.45
2023-09-08T05:12:37.468Z,25.63
2023-09-08T05:15:11.410Z,26.20
2023-09-08T05:17:40.525Z,27.58
2023-09-08T05:20:09.008Z,26.98
2023-09-08T05:22:37.574Z,27.83
2023-09-08T05:25:06.020Z,28.23
2023-09-08T05:27:33.913Z,27.00
2023-09-08T05:30:01.811Z,27.58
2023-09-08T05:32:31.386Z,28.10
2023-09-08T05:34:59.531Z,27.05
2023-09-08T05:37:26.936Z,31.98
2023-09-08T05:39:54.480Z,27.15
2023-09-08T05:42:21.857Z,29.85
2023-09-08T05:44:49.490Z,27.75
2023-09-08T05:47:18.472Z,29.48
2023-09-08T05:49:47.155Z,28.65
2023-09-08T05:52:14.793Z,26.48
2023-09-08T05:54:43.700Z,29.65
2023-09-08T05:57:12.194Z,29.55
2023-09-08T05:59:39.653Z,30.17
2023-09-08T06:02:07.835Z,29.77
2023-09-08T06:04:35.280Z,30.63
2023-09-08T06:07:03.336Z,30.58
2023-09-08T06:09:33.605Z,30.08
2023-09-08T06:12:01.803Z,31.50
2023-09-08T06:14:29.769Z,30.58
2023-09-08T06:16:57.611Z,28.63
2023-09-08T06:19:25.152Z,30.10
2023-09-08T06:21:53.508Z,29.77
2023-09-08T06:24:21.065Z,30.52
2023-09-08T06:26:50.787Z,30.75
2023-09-08T06:29:18.236Z,30.92
2023-09-08T06:31:46.296Z,30.63
2023-09-08T06:34:14.737Z,30.83
2023-09-08T06:36:43.571Z,31.45
2023-09-08T06:39:11.604Z,30.17
2023-09-08T06:41:39.572Z,31.63
2023-09-08T06:44:08.525Z,31.88
2023-09-08T06:46:35.998Z,31.80
2023-09-08T06:49:05.208Z,30.73
2023-09-08T06:51:33.513Z,31.70
2023-09-08T06:54:01.645Z,32.72
2023-09-08T06:56:38.152Z,31.60
2023-09-08T06:59:07.068Z,33.00
2023-09-08T07:01:36.924Z,32.60
2023-09-08T07:04:05.194Z,32.75
2023-09-08T07:06:33.346Z,33.45
2023-09-08T07:09:01.300Z,33.83
2023-09-08T07:11:31.758Z,32.67
2023-09-08T07:13:59.647Z,31.88
2023-09-08T07:16:27.535Z,33.50
2023-09-08T07:18:55.517Z,31.27
2023-09-08T07:21:22.914Z,31.90
2023-09-08T07:23:51.232Z,29.27
2023-09-08T07:26:19.608Z,31.90
2023-09-08T07:28:47.177Z,27.63
2023-09-08T07:31:17.479Z,29.27
2023-09-08T07:33:47.729Z,27.23
2023-09-08T07:36:15.676Z,23.20
2023-09-08T07:38:45.457Z,24.17
2023-09-08T07:41:13.115Z,23.45
2023-09-08T07:43:42.270Z,26.13
2023-09-08T07:46:13.445Z,22.75
2023-09-08T07:48:41.233Z,14.95
2023-09-08T07:51:09.366Z,13.32
2023-09-08T07:53:37.271Z,11.20
2023-09-08T07:56:05.653Z,10.10
2023-09-08T07:58:34.019Z,9.05
2023-09-08T08:01:01.864Z,9.52
2023-09-08T08:03:29.681Z,11.18
2023-09-08T08:05:59.661Z,12.75
2023-09-08T08:08:27.132Z,11.38
2023-09-08T08:10:55.032Z,11.25
2023-09-08T08:13:22.564Z,12.48
2023-09-08T08:15:50.872Z,10.35
2023-09-08T08:18:19.102Z,10.65
2023-09-08T08:20:46.753Z,11.93
2023-09-08T08:23:15.647Z,11.70
2023-09-08T08:25:43.598Z,12.63
2023-09-08T08:28:11.378Z,12.98
2023-09-08T08:30:38.829Z,11.68
2023-09-08T08:33:06.409Z,11.65
2023-09-08T08:35:33.817Z,11.57
2023-09-08T08:38:01.528Z,11.00
2023-09-08T08:40:29.493Z,10.45
2023-09-08T08:42:59.942Z,11.05
2023-09-08T08:45:30.942Z,10.35
2023-09-08T08:47:59.662Z,10.82
2023-09-08T08:50:28.216Z,10.73
2023-09-08T08:52:56.321Z,10.18
2023-09-08T08:55:26.912Z,9.32
2023-09-08T08:57:54.422Z,10.50
2023-09-08T09:00:23.314Z,10.85
2023-09-08T09:03:07.316Z,10.13
2023-09-08T09:05:43.326Z,10.85
2023-09-08T09:08:14.300Z,10.55
2023-09-08T09:10:42.286Z,9.45
2023-09-08T09:13:10.034Z,9.55
2023-09-08T09:15:37.780Z,8.52
2023-09-08T09:18:09.269Z,9.88
2023-09-08T09:20:36.981Z,8.52
2023-09-08T09:23:04.656Z,8.60
2023-09-08T09:25:33.560Z,9.02
2023-09-08T09:28:03.889Z,8.50
2023-09-08T09:30:48.706Z,7.70
2023-09-08T09:33:17.027Z,7.93
2023-09-08T09:35:55.373Z,8.15
2023-09-08T09:38:23.905Z,7.38
2023-09-08T09:40:51.317Z,8.30
2023-09-08T09:43:22.525Z,10.15
2023-09-08T09:48:21.180Z,9.70
2023-09-08T09:50:48.659Z,8.88
2023-09-08T09:53:17.950Z,8.80
2023-09-08T09:55:46.552Z,10.15
2023-09-08T09:58:16.445Z,10.10
2023-09-08T10:00:49.222Z,9.05
2023-09-08T10:03:18.796Z,8.85
2023-09-08T10:05:48.337Z,9.25
2023-09-08T10:08:15.895Z,7.78
2023-09-08T10:10:47.502Z,8.48
2023-09-08T10:13:25.389Z,8.55
2023-09-08T10:15:55.037Z,8.90
2023-09-08T10:18:26.897Z,9.80
2023-09-08T10:20:55.440Z,9.00
2023-09-08T10:23:38.337Z,9.20
2023-09-08T10:26:10.551Z,8.38
2023-09-08T10:28:40.057Z,7.53
2023-09-08T10:31:08.995Z,8.25
2023-09-08T10:33:37.415Z,9.35
2023-09-08T10:36:06.746Z,8.15
2023-09-08T10:38:37.848Z,7.53
2023-09-08T10:41:17.768Z,9.57
2023-09-08T10:43:58.779Z,9.10
2023-09-08T10:46:32.030Z,9.65
2023-09-08T10:49:05.091Z,8.23
2023-09-08T10:51:32.834Z,8.45
2023-09-08T10:54:00.362Z,7.25
2023-09-08T10:56:50.835Z,7.97
2023-09-08T10:59:18.447Z,8.13
2023-09-08T11:01:48.710Z,8.45
2023-09-08T11:04:20.378Z,8.43
2023-09-08T11:06:50.463Z,7.50
2023-09-08T11:09:18.341Z,7.10
2023-09-08T11:11:46.248Z,6.60
2023-09-08T11:14:14.170Z,6.93
2023-09-08T11:16:41.585Z,7.68
2023-09-08T11:19:11.177Z,7.55
2023-09-08T11:21:40.954Z,8.38
2023-09-08T11:24:10.684Z,7.05
2023-09-08T11:26:38.780Z,6.55
2023-09-08T11:29:06.565Z,6.80
2023-09-08T11:31:35.755Z,6.90
2023-09-08T11:34:06.639Z,7.05
2023-09-08T11:36:37.470Z,6.65
2023-09-08T11:39:07.396Z,6.65
2023-09-08T11:41:35.833Z,7.20
2023-09-08T11:44:03.354Z,6.20
2023-09-08T11:46:31.901Z,6.97
2023-09-08T11:48:59.604Z,7.25
2023-09-08T11:51:28.261Z,6.47
2023-09-08T11:53:56.110Z,6.32
2023-09-08T11:56:23.755Z,6.50
2023-09-08T11:58:52.083Z,6.32
2023-09-08T12:01:20.241Z,7.10
2023-09-08T12:03:54.924Z,5.03
2023-09-08T12:06:29.776Z,6.30
2023-09-08T12:09:03.540Z,7.07
2023-09-08T12:11:36.336Z,6.50
2023-09-08T12:14:08.404Z,6.55
2023-09-08T12:16:36.595Z,6.57
2023-09-08T12:19:05.055Z,5.15
2023-09-08T12:21:36.229Z,5.60
2023-09-08T12:26:31.812Z,5.50
2023-09-08T12:28:59.409Z,5.20
2023-09-08T12:31:27.280Z,4.95
2023-09-08T12:33:55.244Z,4.95
2023-09-08T12:36:24.905Z,5.30
2023-09-08T12:38:53.544Z,5.68
2023-09-08T12:41:21.097Z,5.28
2023-09-08T12:43:49.058Z,5.13
2023-09-08T12:46:20.192Z,4.80
2023-09-08T12:48:48.277Z,4.68
2023-09-08T12:51:15.721Z,5.20
2023-09-08T12:53:43.386Z,4.75
2023-09-08T12:56:10.797Z,4.47
2023-09-08T12:58:38.470Z,4.85
2023-09-08T13:01:08.230Z,4.80
2023-09-08T13:03:36.579Z,4.60
2023-09-08T13:06:04.507Z,4.53
2023-09-08T13:08:32.642Z,4.68
2023-09-08T13:11:00.121Z,4.28
2023-09-08T13:13:30.329Z,4.20
2023-09-08T13:15:58.237Z,5.45
2023-09-08T13:18:25.669Z,5.00
2023-09-08T13:20:53.541Z,4.95
2023-09-08T13:23:21.369Z,5.20
2023-09-08T13:25:48.764Z,5.15
2023-09-08T13:28:17.054Z,4.97
2023-09-08T13:30:44.882Z,5.00
2023-09-08T13:33:12.381Z,4.65
2023-09-08T13:35:40.302Z,4.72
2023-09-08T13:38:08.181Z,4.45
2023-09-08T13:40:35.603Z,5.38
2023-09-08T13:43:03.613Z,4.28
2023-09-08T13:45:31.424Z,4.25
2023-09-08T13:47:59.405Z,4.18
2023-09-08T13:50:28.258Z,4.20
2023-09-08T13:52:56.495Z,4.75
2023-09-08T13:58:00.284Z,4.50
2023-09-08T14:00:31.591Z,4.70
2023-09-08T14:03:00.418Z,4.60
2023-09-08T14:05:36.831Z,4.57
2023-09-08T14:08:16.514Z,4.90
2023-09-08T14:13:16.327Z,4.85
2023-09-08T14:15:44.748Z,4.32
2023-09-08T14:18:12.628Z,4.43
2023-09-08T14:20:40.094Z,4.53
2023-09-08T14:23:09.836Z,4.30
2023-09-08T14:25:37.394Z,4.25
2023-09-08T14:28:06.850Z,4.18
2023-09-08T14:30:36.383Z,4.40
2023-09-08T14:33:04.604Z,4.65
2023-09-08T14:35:32.196Z,3.83
2023-09-08T14:38:02.821Z,3.58
2023-09-08T14:40:30.572Z,3.33
2023-09-08T14:42:58.082Z,3.42
2023-09-08T14:45:27.875Z,3.33
2023-09-08T14:47:55.397Z,3.10
2023-09-08T14:50:23.406Z,3.40
2023-09-08T14:52:50.730Z,3.15
2023-09-08T14:55:18.111Z,3.47
2023-09-08T14:57:45.589Z,3.60
2023-09-08T15:00:14.214Z,3.83
2023-09-08T15:02:42.336Z,3.78
2023-09-08T15:05:10.170Z,3.35
2023-09-08T15:07:37.984Z,3.33
2023-09-08T15:10:05.717Z,3.63
2023-09-08T15:12:33.174Z,3.22
2023-09-08T15:15:01.033Z,3.47
2023-09-08T15:17:28.903Z,3.85
2023-09-08T15:19:56.363Z,3.40
2023-09-08T15:22:23.709Z,3.15
2023-09-08T15:24:51.175Z,2.95
2023-09-08T15:27:18.593Z,2.88
2023-09-08T15:29:45.983Z,3.30
2023-09-08T15:32:13.414Z,3.40
2023-09-08T15:34:41.371Z,3.40
2023-09-08T15:37:08.755Z,3.28
2023-09-08T15:39:36.199Z,3.03
2023-09-08T15:42:04.310Z,3.25
2023-09-08T15:44:32.181Z,3.72
2023-09-08T15:46:59.581Z,3.15
2023-09-08T15:49:27.289Z,3.15
2023-09-08T15:52:08.914Z,3.67
2023-09-08T15:54:43.244Z,3.85
2023-09-08T15:57:10.750Z,3.13
2023-09-08T15:59:39.862Z,3.53
2023-09-08T16:02:07.966Z,2.95
2023-09-08T16:04:36.063Z,3.50
2023-09-08T16:07:03.935Z,3.30
2023-09-08T16:09:31.727Z,3.33
2023-09-08T16:11:59.569Z,3.72
2023-09-08T16:14:27.006Z,3.70
2023-09-08T16:16:54.528Z,3.88
2023-09-08T16:19:21.991Z,3.50
2023-09-08T16:21:49.350Z,3.20
2023-09-08T16:24:17.567Z,3.17
2023-09-08T16:26:45.015Z,3.38
2023-09-08T16:29:12.613Z,2.88
2023-09-08T16:31:40.194Z,3.05
2023-09-08T16:34:08.168Z,3.30
2023-09-08T16:36:35.953Z,3.20
2023-09-08T16:39:03.483Z,3.83
2023-09-08T16:41:31.323Z,3.50
2023-09-08T16:43:58.711Z,4.20
2023-09-08T16:46:26.164Z,3.63
2023-09-08T16:48:53.958Z,4.65
2023-09-08T16:51:22.394Z,4.22
2023-09-08T16:53:49.799Z,4.05
2023-09-08T16:56:17.354Z,4.68
2023-09-08T16:58:45.245Z,4.68
2023-09-08T17:01:13.322Z,5.70
2023-09-08T17:03:41.073Z,5.15
2023-09-08T17:06:08.919Z,5.43
2023-09-08T17:08:36.969Z,5.35
2023-09-08T17:11:06.244Z,5.68
2023-09-08T17:13:35.638Z,6.05
2023-09-08T17:16:03.624Z,7.07
2023-09-08T17:18:31.042Z,5.35
2023-09-08T17:20:58.448Z,5.38
2023-09-08T17:23:26.338Z,5.20
2023-09-08T17:25:53.848Z,5.15
2023-09-08T17:28:21.168Z,5.63
2023-09-08T17:30:49.299Z,5.28
2023-09-08T17:33:17.553Z,5.65
2023-09-08T17:35:47.773Z,5.65
2023-09-08T17:38:15.194Z,5.85
2023-09-08T17:40:42.667Z,5.25
2023-09-08T17:43:10.386Z,5.72
2023-09-08T17:45:39.400Z,6.75
2023-09-08T17:48:07.875Z,7.40
2023-09-08T17:50:35.561Z,7.40
2023-09-08T17:53:03.532Z,7.35
2023-09-08T17:55:31.029Z,7.50
2023-09-08T17:57:58.939Z,7.28
2023-09-08T18:00:26.355Z,6.95
2023-09-08T18:02:54.682Z,12.30
2023-09-08T18:05:22.256Z,7.93
2023-09-08T18:07:49.588Z,7.25
2023-09-08T18:10:17.510Z,7.13
2023-09-08T18:12:45.301Z,7.13
2023-09-08T18:15:12.702Z,7.80
2023-09-08T18:17:41.226Z,8.48
2023-09-08T18:20:09.855Z,7.60
2023-09-08T18:22:37.292Z,6.95
2023-09-08T18:25:05.442Z,6.82
2023-09-08T18:27:33.909Z,8.27
2023-09-08T18:30:01.685Z,7.32
2023-09-08T18:32:29.277Z,8.15
2023-09-08T18:34:57.162Z,8.18
2023-09-08T18:37:24.547Z,7.63
2023-09-08T18:39:51.891Z,8.25
2023-09-08T18:42:19.949Z,11.10
2023-09-08T18:44:47.325Z,11.73
2023-09-08T18:47:14.770Z,9.82
2023-09-08T18:49:42.314Z,8.95
2023-09-08T18:52:10.989Z,11.07
2023-09-08T18:54:40.795Z,11.63
2023-09-08T18:57:08.348Z,15.75
2023-09-08T18:59:35.692Z,13.40
2023-09-08T19:02:05.659Z,11.00
2023-09-08T19:04:33.791Z,10.90
2023-09-08T19:07:01.409Z,10.98
2023-09-08T19:09:29.313Z,11.52
2023-09-08T19:11:56.779Z,11.02
2023-09-08T19:14:27.925Z,11.77
2023-09-08T19:16:56.032Z,11.48
2023-09-08T19:19:23.498Z,11.27
2023-09-08T19:21:52.973Z,11.73
2023-09-08T19:24:24.262Z,12.57
2023-09-08T19:26:52.324Z,12.10
2023-09-08T19:29:20.566Z,12.85
2023-09-08T19:31:48.364Z,12.23
2023-09-08T19:34:15.834Z,12.25
2023-09-08T19:36:43.257Z,12.20
2023-09-08T19:39:10.669Z,11.25
2023-09-08T19:41:38.390Z,11.73
2023-09-08T19:44:06.552Z,11.45
2023-09-08T19:46:37.656Z,11.77
2023-09-08T19:51:33.236Z,11.77
2023-09-08T19:54:01.606Z,13.13
2023-09-08T19:56:29.490Z,12.77
2023-09-08T19:58:56.847Z,13.07
2023-09-08T20:01:24.817Z,12.82
2023-09-08T20:03:52.309Z,12.68
2023-09-08T20:06:20.238Z,12.15
2023-09-08T20:08:48.299Z,13.95
2023-09-08T20:11:15.899Z,13.45
2023-09-08T20:13:43.503Z,13.63
2023-09-08T20:16:11.237Z,13.73
2023-09-08T20:18:40.176Z,14.55
2023-09-08T20:21:08.548Z,13.73
2023-09-08T20:23:36.847Z,13.73
2023-09-08T20:26:04.465Z,14.07
2023-09-08T20:28:33.049Z,13.88
2023-09-08T20:31:15.647Z,12.77
2023-09-08T20:33:46.369Z,15.07
2023-09-08T20:36:15.335Z,14.80
2023-09-08T20:38:43.826Z,15.23
2023-09-08T20:41:12.649Z,14.20
2023-09-08T20:43:41.023Z,14.75
2023-09-08T20:46:08.743Z,15.80
2023-09-08T20:48:38.527Z,15.25
2023-09-08T20:51:12.264Z,14.80
2023-09-08T20:53:42.157Z,15.93
2023-09-08T20:56:11.331Z,14.60
2023-09-08T20:58:41.056Z,15.35
2023-09-08T21:01:09.008Z,15.90
2023-09-08T21:03:37.301Z,15.55
2023-09-08T21:06:05.761Z,16.00
2023-09-08T21:08:33.256Z,16.20
2023-09-08T21:11:00.741Z,15.20
2023-09-08T21:13:28.340Z,16.77
2023-09-08T21:15:56.758Z,15.25
2023-09-08T21:18:24.188Z,15.73
2023-09-08T21:20:52.263Z,16.42
2023-09-08T21:23:20.226Z,15.30
2023-09-08T21:25:47.688Z,16.05
2023-09-08T21:28:15.234Z,15.57
2023-09-08T21:30:42.679Z,16.63
2023-09-08T21:33:10.376Z,15.95
2023-09-08T21:35:38.072Z,16.58
2023-09-08T21:38:05.978Z,16.92
2023-09-08T21:40:33.857Z,18.85
2023-09-08T21:43:01.324Z,21.23
2023-09-08T21:45:28.678Z,21.00
2023-09-08T21:47:57.219Z,19.90
2023-09-08T21:50:25.070Z,21.15
